createdAt,value
2023-03-29T00:00:39.159Z,27.98
2023-03-29T00:03:45.697Z,33.22
2023-03-29T00:06:50.594Z,31.48
2023-03-29T00:09:54.726Z,30.42
2023-03-29T00:12:59.856Z,34.08
2023-03-29T00:16:04.703Z,29.85
2023-03-29T00:19:09.654Z,30.77
2023-03-29T00:22:14.926Z,30.55
2023-03-29T00:25:19.382Z,34.63
2023-03-29T00:28:24.452Z,34.70
2023-03-29T00:31:28.908Z,34.03
2023-03-29T00:34:36.083Z,38.95
2023-03-29T00:37:41.334Z,38.33
2023-03-29T00:40:47.320Z,38.58
2023-03-29T00:44:02.093Z,39.17
2023-03-29T00:47:06.632Z,42.53
2023-03-29T00:50:30.868Z,36.53
2023-03-29T00:53:46.824Z,35.42
2023-03-29T00:56:51.681Z,41.20
2023-03-29T00:59:57.764Z,52.42
2023-03-29T01:03:13.689Z,42.28
2023-03-29T01:06:22.771Z,43.20
2023-03-29T01:09:30.362Z,40.90
2023-03-29T01:12:46.626Z,36.25
2023-03-29T01:15:51.279Z,43.40
2023-03-29T01:19:02.275Z,39.78
2023-03-29T01:22:18.421Z,37.80
2023-03-29T01:25:55.643Z,36.88
2023-03-29T01:29:09.917Z,31.30
2023-03-29T01:32:26.040Z,30.70
2023-03-29T01:36:13.911Z,36.67
2023-03-29T01:39:19.003Z,33.67
2023-03-29T01:42:33.420Z,35.33
2023-03-29T01:46:16.629Z,31.13
2023-03-29T01:49:43.932Z,32.85
2023-03-29T01:53:13.201Z,36.95
2023-03-29T01:56:22.976Z,40.75
2023-03-29T01:59:32.242Z,34.53
2023-03-29T02:02:41.699Z,34.80
2023-03-29T02:05:46.696Z,34.80
2023-03-29T02:08:53.059Z,41.33
2023-03-29T02:12:01.295Z,36.42
2023-03-29T02:15:13.262Z,41.35
2023-03-29T02:18:19.811Z,37.08
2023-03-29T02:21:42.557Z,38.67
2023-03-29T02:24:50.071Z,38.92
2023-03-29T02:27:54.772Z,38.35
2023-03-29T02:31:30.681Z,37.25
2023-03-29T02:34:41.748Z,42.83
2023-03-29T02:37:49.589Z,39.22
2023-03-29T02:40:56.993Z,45.03
2023-03-29T02:44:04.304Z,37.72
2023-03-29T02:47:25.072Z,38.92
2023-03-29T02:50:37.477Z,34.50
2023-03-29T02:54:13.478Z,36.00
2023-03-29T02:57:18.273Z,34.50
2023-03-29T03:00:24.057Z,34.22
2023-03-29T03:03:29.141Z,31.67
2023-03-29T03:06:33.869Z,30.85
2023-03-29T03:18:55.521Z,29.35
2023-03-29T03:21:59.915Z,36.58
2023-03-29T03:25:04.885Z,26.73
2023-03-29T03:28:09.276Z,34.25
2023-03-29T03:31:15.899Z,23.63
2023-03-29T03:34:19.954Z,25.10
2023-03-29T03:37:24.840Z,29.42
2023-03-29T03:40:29.242Z,27.58
2023-03-29T03:43:34.476Z,20.48
2023-03-29T03:46:38.733Z,28.05
2023-03-29T03:49:43.513Z,22.50
2023-03-29T03:52:47.637Z,22.67
2023-03-29T03:55:55.829Z,22.17
2023-03-29T03:59:00.154Z,21.33
2023-03-29T04:02:05.644Z,26.30
2023-03-29T04:05:10.133Z,22.60
2023-03-29T04:08:15.099Z,19.35
2023-03-29T04:11:19.516Z,21.80
2023-03-29T04:14:25.996Z,19.73
2023-03-29T04:17:30.490Z,15.18
2023-03-29T04:20:35.211Z,27.55
2023-03-29T04:23:39.661Z,16.05
2023-03-29T04:26:44.386Z,17.17
2023-03-29T04:29:48.912Z,19.00
2023-03-29T04:32:53.231Z,18.25
2023-03-29T04:35:57.504Z,13.63
2023-03-29T04:39:02.023Z,15.70
2023-03-29T04:42:06.663Z,14.00
2023-03-29T04:45:13.997Z,15.68
2023-03-29T04:48:18.374Z,15.00
2023-03-29T04:51:24.328Z,13.40
2023-03-29T04:54:28.584Z,15.40
2023-03-29T04:57:33.433Z,13.10
2023-03-29T05:00:37.879Z,17.42
2023-03-29T05:03:42.241Z,15.85
2023-03-29T05:06:47.202Z,15.07
2023-03-29T05:09:51.991Z,20.27
2023-03-29T05:12:56.928Z,19.42
2023-03-29T05:16:02.522Z,12.73
2023-03-29T05:19:09.149Z,16.02
2023-03-29T05:22:14.272Z,12.57
2023-03-29T05:25:19.600Z,16.88
2023-03-29T05:28:23.787Z,15.95
2023-03-29T05:31:29.153Z,13.27
2023-03-29T05:34:33.598Z,13.02
2023-03-29T05:37:38.992Z,24.48
2023-03-29T05:40:43.214Z,14.25
2023-03-29T05:43:47.319Z,16.02
2023-03-29T05:46:52.629Z,13.32
2023-03-29T05:49:57.319Z,18.27
2023-03-29T05:53:01.636Z,16.05
2023-03-29T05:56:08.696Z,13.07
2023-03-29T05:59:13.877Z,15.75
2023-03-29T06:02:18.730Z,15.27
2023-03-29T06:05:22.864Z,17.40
2023-03-29T06:08:28.523Z,19.15
2023-03-29T06:11:34.908Z,20.20
2023-03-29T06:14:39.037Z,18.88
2023-03-29T06:17:47.242Z,19.20
2023-03-29T06:20:53.638Z,25.50
2023-03-29T06:23:58.654Z,24.05
2023-03-29T06:27:03.056Z,23.83
2023-03-29T06:30:08.057Z,25.40
2023-03-29T06:33:14.185Z,22.83
2023-03-29T06:36:20.097Z,26.75
2023-03-29T06:39:26.295Z,23.83
2023-03-29T06:42:30.732Z,31.58
2023-03-29T06:45:37.817Z,23.58
2023-03-29T06:48:42.151Z,27.83
2023-03-29T06:51:46.922Z,28.25
2023-03-29T06:54:51.589Z,30.50
2023-03-29T06:57:56.095Z,24.63
2023-03-29T07:01:04.877Z,28.50
2023-03-29T07:04:10.021Z,33.58
2023-03-29T07:07:20.194Z,27.80
2023-03-29T07:10:32.240Z,31.13
2023-03-29T07:13:36.858Z,23.90
2023-03-29T07:16:41.059Z,23.15
2023-03-29T07:19:45.689Z,27.27
2023-03-29T07:22:51.218Z,25.23
2023-03-29T07:25:55.831Z,23.98
2023-03-29T07:29:00.997Z,28.50
2023-03-29T07:32:05.645Z,27.45
2023-03-29T07:35:12.137Z,23.83
2023-03-29T07:38:16.312Z,26.35
2023-03-29T07:41:21.146Z,25.75
2023-03-29T07:44:27.064Z,28.08
2023-03-29T07:47:31.868Z,23.15
2023-03-29T07:50:36.363Z,25.33
2023-03-29T07:53:40.543Z,23.10
2023-03-29T07:56:44.989Z,24.23
2023-03-29T07:59:49.625Z,22.00
2023-03-29T08:02:54.903Z,25.20
2023-03-29T08:06:02.990Z,24.20
2023-03-29T08:09:07.142Z,27.73
2023-03-29T08:12:11.672Z,25.75
2023-03-29T08:15:17.011Z,19.75
2023-03-29T08:18:21.778Z,23.10
2023-03-29T08:21:26.519Z,24.40
2023-03-29T08:24:31.134Z,18.60
2023-03-29T08:27:35.730Z,21.92
2023-03-29T08:30:39.934Z,21.88
2023-03-29T08:33:44.457Z,24.10
2023-03-29T08:36:49.056Z,19.40
2023-03-29T08:39:53.545Z,21.35
2023-03-29T08:43:19.642Z,18.48
2023-03-29T08:47:07.900Z,21.50
2023-03-29T08:50:13.886Z,20.25
2023-03-29T08:53:31.846Z,19.42
2023-03-29T08:56:39.387Z,17.92
2023-03-29T08:59:45.582Z,21.48
2023-03-29T09:02:53.842Z,24.20
2023-03-29T09:06:10.904Z,21.80
2023-03-29T09:09:20.773Z,20.10
2023-03-29T09:12:52.672Z,18.15
2023-03-29T09:16:09.909Z,17.92
2023-03-29T09:19:47.111Z,19.17
2023-03-29T09:23:46.970Z,23.52
2023-03-29T09:27:00.598Z,21.92
2023-03-29T09:30:17.117Z,20.57
2023-03-29T09:33:42.636Z,21.60
2023-03-29T09:37:01.706Z,16.60
2023-03-29T09:40:31.078Z,16.77
2023-03-29T09:43:41.630Z,21.02
2023-03-29T09:46:58.385Z,17.65
2023-03-29T09:50:31.466Z,16.45
2023-03-29T09:53:37.241Z,18.52
2023-03-29T09:56:41.964Z,16.60
2023-03-29T09:59:49.515Z,18.83
2023-03-29T10:02:57.179Z,16.40
2023-03-29T10:06:06.418Z,17.08
2023-03-29T10:09:21.926Z,24.75
2023-03-29T10:12:26.107Z,16.80
2023-03-29T10:15:31.589Z,18.05
2023-03-29T10:18:43.857Z,17.45
2023-03-29T10:21:53.857Z,20.05
2023-03-29T10:24:58.022Z,20.58
2023-03-29T10:28:16.126Z,19.15
2023-03-29T10:31:22.532Z,20.15
2023-03-29T10:34:28.161Z,20.15
2023-03-29T10:37:32.291Z,21.85
2023-03-29T10:40:48.042Z,18.38
2023-03-29T10:43:53.747Z,30.25
2023-03-29T10:47:19.482Z,24.38
2023-03-29T10:50:26.673Z,23.23
2023-03-29T10:53:34.884Z,24.40
2023-03-29T10:56:50.787Z,23.98
2023-03-29T11:00:08.275Z,28.05
2023-03-29T11:03:55.596Z,20.15
2023-03-29T11:07:18.033Z,25.95
2023-03-29T11:10:48.161Z,23.85
2023-03-29T11:14:22.501Z,22.65
2023-03-29T11:17:50.873Z,24.90
2023-03-29T11:21:45.762Z,31.23
2023-03-29T11:25:08.376Z,22.65
2023-03-29T11:28:41.387Z,30.52
2023-03-29T11:32:13.238Z,25.77
2023-03-29T11:35:36.864Z,29.95
2023-03-29T11:39:00.686Z,31.55
2023-03-29T11:42:17.779Z,28.52
2023-03-29T11:45:57.840Z,29.20
2023-03-29T11:49:44.396Z,29.27
2023-03-29T11:52:59.111Z,32.65
2023-03-29T11:56:19.263Z,31.55
2023-03-29T11:59:36.319Z,35.33
2023-03-29T12:03:14.825Z,38.95
2023-03-29T12:06:37.815Z,31.98
2023-03-29T12:09:59.995Z,37.75
2023-03-29T12:13:38.543Z,35.35
2023-03-29T12:17:01.274Z,35.33
2023-03-29T12:20:28.374Z,37.30
2023-03-29T12:23:33.493Z,37.70
2023-03-29T12:26:50.499Z,39.22
2023-03-29T12:30:34.228Z,42.58
2023-03-29T12:34:19.315Z,49.70
2023-03-29T12:38:04.204Z,46.10
2023-03-29T12:41:19.675Z,49.83
2023-03-29T12:44:24.542Z,51.22
2023-03-29T12:47:39.683Z,51.90
2023-03-29T12:51:07.767Z,49.50
2023-03-29T12:54:21.653Z,53.15
2023-03-29T12:57:38.085Z,49.15
2023-03-29T13:00:45.296Z,54.10
2023-03-29T13:03:55.295Z,57.72
2023-03-29T13:07:05.884Z,45.53
2023-03-29T13:10:30.823Z,51.03
2023-03-29T13:13:38.304Z,45.33
2023-03-29T13:16:43.765Z,45.85
2023-03-29T13:20:18.957Z,44.88
2023-03-29T13:24:06.745Z,48.15
2023-03-29T13:27:37.353Z,44.80
2023-03-29T13:31:06.284Z,45.13
2023-03-29T13:34:39.042Z,46.95
2023-03-29T13:38:21.616Z,45.38
2023-03-29T13:41:38.131Z,45.15
2023-03-29T13:44:46.089Z,43.25
2023-03-29T13:48:04.950Z,43.00
2023-03-29T13:51:21.773Z,41.67
2023-03-29T13:54:37.391Z,44.22
2023-03-29T13:57:52.620Z,47.78
2023-03-29T14:01:29.392Z,41.47
2023-03-29T14:04:43.529Z,46.83
2023-03-29T14:10:56.290Z,49.20
2023-03-29T14:14:08.507Z,48.78
2023-03-29T14:17:22.712Z,46.25
2023-03-29T14:20:27.630Z,52.25
2023-03-29T14:23:37.878Z,46.78
2023-03-29T14:26:47.050Z,46.85
2023-03-29T14:29:52.371Z,49.72
2023-03-29T14:32:57.066Z,49.58
2023-03-29T14:36:05.018Z,45.35
2023-03-29T14:39:21.892Z,41.63
2023-03-29T14:42:29.138Z,45.88
2023-03-29T14:45:33.634Z,39.20
2023-03-29T14:48:38.979Z,42.13
2023-03-29T14:51:47.846Z,40.33
2023-03-29T14:54:58.279Z,40.45
2023-03-29T14:58:02.674Z,41.47
2023-03-29T15:01:19.934Z,40.08
2023-03-29T15:04:31.600Z,33.83
2023-03-29T15:07:37.174Z,37.78
2023-03-29T15:10:44.750Z,40.15
2023-03-29T15:13:56.755Z,47.78
2023-03-29T15:17:43.070Z,43.42
2023-03-29T15:20:54.891Z,42.50
2023-03-29T15:24:02.100Z,40.20
2023-03-29T15:27:18.864Z,40.03
2023-03-29T15:30:39.273Z,44.13
2023-03-29T15:33:44.079Z,40.83
2023-03-29T15:36:48.708Z,45.85
2023-03-29T15:39:53.100Z,50.72
2023-03-29T15:42:57.242Z,54.22
2023-03-29T15:46:01.600Z,54.65
2023-03-29T15:49:06.021Z,49.47
2023-03-29T15:52:10.530Z,53.38
2023-03-29T15:55:15.060Z,53.20
2023-03-29T15:58:30.601Z,49.90
2023-03-29T16:01:37.767Z,49.75
2023-03-29T16:04:42.936Z,48.00
2023-03-29T16:07:47.521Z,45.05
2023-03-29T16:10:51.808Z,53.92
2023-03-29T16:13:57.210Z,46.20
2023-03-29T16:17:03.241Z,45.55
2023-03-29T16:20:10.151Z,47.85
2023-03-29T16:23:14.597Z,41.85
2023-03-29T16:26:19.016Z,43.95
2023-03-29T16:29:25.273Z,46.70
2023-03-29T16:32:29.580Z,40.83
2023-03-29T16:35:38.192Z,38.92
2023-03-29T16:38:42.461Z,39.13
2023-03-29T16:41:48.951Z,38.65
2023-03-29T16:44:54.699Z,39.45
2023-03-29T16:47:59.366Z,35.85
2023-03-29T16:51:04.427Z,39.50
2023-03-29T16:54:09.265Z,34.13
2023-03-29T16:57:13.827Z,35.10
2023-03-29T17:00:20.197Z,37.83
2023-03-29T17:03:24.798Z,31.35
2023-03-29T17:06:29.842Z,37.53
2023-03-29T17:09:34.186Z,41.30
2023-03-29T17:12:39.515Z,30.70
2023-03-29T17:15:44.239Z,39.05
2023-03-29T17:18:48.914Z,41.63
2023-03-29T17:24:57.523Z,40.03
2023-03-29T17:28:01.736Z,48.05
2023-03-29T17:31:07.811Z,47.67
2023-03-29T17:34:13.002Z,41.25
2023-03-29T17:37:17.594Z,44.40
2023-03-29T17:40:22.474Z,41.92
2023-03-29T17:43:27.187Z,44.42
2023-03-29T17:46:32.283Z,41.42
2023-03-29T17:49:37.151Z,39.78
2023-03-29T17:52:41.447Z,41.83
2023-03-29T17:58:50.689Z,40.55
2023-03-29T18:01:54.957Z,40.33
2023-03-29T18:05:02.531Z,44.50
2023-03-29T18:08:08.683Z,45.75
2023-03-29T18:11:22.359Z,37.00
2023-03-29T18:14:26.655Z,27.05
2023-03-29T18:17:31.471Z,39.83
2023-03-29T18:20:35.563Z,41.03
2023-03-29T18:23:42.157Z,39.72
2023-03-29T18:26:46.584Z,43.22
2023-03-29T18:29:51.041Z,41.00
2023-03-29T18:32:55.575Z,39.40
2023-03-29T18:36:01.680Z,36.42
2023-03-29T18:39:06.610Z,42.70
2023-03-29T18:42:12.238Z,44.20
2023-03-29T18:45:18.006Z,44.33
2023-03-29T18:48:22.312Z,44.80
2023-03-29T18:51:28.070Z,44.70
2023-03-29T18:54:32.515Z,45.47
2023-03-29T18:57:37.148Z,44.55
2023-03-29T19:00:43.378Z,39.38
2023-03-29T19:03:48.208Z,41.72
2023-03-29T19:06:53.682Z,41.03
2023-03-29T19:09:57.772Z,40.65
2023-03-29T19:13:01.936Z,46.13
2023-03-29T19:16:07.394Z,46.40
2023-03-29T19:19:12.824Z,50.38
2023-03-29T19:22:17.621Z,49.85
2023-03-29T19:25:22.244Z,46.10
2023-03-29T19:28:27.464Z,40.78
2023-03-29T19:31:33.494Z,47.33
2023-03-29T19:34:38.084Z,49.75
2023-03-29T19:37:42.817Z,48.05
2023-03-29T19:40:49.952Z,50.00
2023-03-29T19:43:54.618Z,49.17
2023-03-29T19:47:00.579Z,49.03
2023-03-29T19:50:06.997Z,50.97
2023-03-29T19:53:12.803Z,45.42
2023-03-29T19:56:17.835Z,47.97
2023-03-29T19:59:22.741Z,47.80
2023-03-29T20:02:27.428Z,45.70
2023-03-29T20:05:31.978Z,47.40
2023-03-29T20:08:38.714Z,44.35
2023-03-29T20:11:46.873Z,44.38
2023-03-29T20:14:51.595Z,41.55
2023-03-29T20:17:59.441Z,42.45
2023-03-29T20:21:06.712Z,45.60
2023-03-29T20:24:11.579Z,43.38
2023-03-29T20:27:15.952Z,40.55
2023-03-29T20:30:20.557Z,42.85
2023-03-29T20:33:24.877Z,43.03
2023-03-29T20:36:30.664Z,41.92
2023-03-29T20:39:35.676Z,43.47
2023-03-29T20:42:40.080Z,40.90
2023-03-29T20:45:53.381Z,41.22
2023-03-29T20:48:58.201Z,43.70
2023-03-29T20:52:08.363Z,43.42
2023-03-29T20:55:13.252Z,46.45
2023-03-29T20:58:17.804Z,44.72
2023-03-29T21:01:22.282Z,49.67
2023-03-29T21:04:27.937Z,46.45
2023-03-29T21:07:32.783Z,44.30
2023-03-29T21:10:37.232Z,48.47
2023-03-29T21:13:42.996Z,46.17
2023-03-29T21:16:50.763Z,51.83
2023-03-29T21:19:55.356Z,50.33
2023-03-29T21:23:00.193Z,54.30
2023-03-29T21:26:07.325Z,49.22
2023-03-29T21:29:11.939Z,50.85
2023-03-29T21:32:16.098Z,51.83
2023-03-29T21:35:20.611Z,53.47
2023-03-29T21:38:25.240Z,57.00
2023-03-29T21:41:29.589Z,63.35
2023-03-29T21:44:34.556Z,59.33
2023-03-29T21:47:39.274Z,58.78
2023-03-29T21:50:44.693Z,62.78
2023-03-29T21:53:49.125Z,67.95
2023-03-29T21:59:57.379Z,66.65
2023-03-29T22:03:01.614Z,68.75
2023-03-29T22:06:09.474Z,71.45
2023-03-29T22:09:14.099Z,73.90
2023-03-29T22:12:18.788Z,76.13
2023-03-29T22:15:22.905Z,79.93
2023-03-29T22:18:30.171Z,78.93
2023-03-29T22:21:37.294Z,79.35
2023-03-29T22:24:42.270Z,85.68
2023-03-29T22:27:48.909Z,74.50
2023-03-29T22:30:53.235Z,77.57
2023-03-29T22:33:58.601Z,77.65
2023-03-29T22:37:03.716Z,82.40
2023-03-29T22:40:10.167Z,75.88
2023-03-29T22:43:14.346Z,85.13
2023-03-29T22:46:19.746Z,86.05
2023-03-29T22:49:24.546Z,83.22
2023-03-29T22:52:28.763Z,81.82
2023-03-29T22:55:33.077Z,85.32
2023-03-29T22:58:37.769Z,91.47
2023-03-29T23:01:42.200Z,93.53
2023-03-29T23:04:47.529Z,95.18
2023-03-29T23:07:51.920Z,90.43
2023-03-29T23:10:56.494Z,89.85
2023-03-29T23:17:10.137Z,97.28
2023-03-29T23:20:14.651Z,97.75
2023-03-29T23:23:21.751Z,100.75
2023-03-29T23:26:27.763Z,97.78
2023-03-29T23:29:31.685Z,96.93
2023-03-29T23:32:36.259Z,98.63
2023-03-29T23:35:40.775Z,96.57
2023-03-29T23:38:46.879Z,100.07
2023-03-29T23:41:51.751Z,100.55
2023-03-29T23:44:56.128Z,102.95
2023-03-29T23:48:01.433Z,99.57
2023-03-29T23:51:08.120Z,93.88
2023-03-29T23:54:12.875Z,99.03
2023-03-29T23:57:17.314Z,101.00
